Mountain Valley, Arkansas
Current Conditions -  °F | °C
As of 3:53 AM on Tuesday 21 Oct 2014 (Local Time) from KHOT Reporting Station
Light Rain Light Rain  
Wind Chill: 57°   Ceiling: 3300
Heat Index: 57°   Visibility: 6mi
Dew Point: 56°   Wind: 0mph
Humidity: 96%   Direction: NA
Pressure: 30.06"   Gusts: NA
Location:  34.5331°N, 93.0035°W
Report Text: KHOT 210853Z AUTO 00000KT 6SM -RA BR OVC033 14/13 A3006 RMK AO2 RAB04E30B36 SLP176 P0000 60000 T01390133 52001
Loading
Personal Weather Stations






























Interactive Weather Map
Tropical Storm Tracking
New forecast layout! Learn more

10-Day Weather Forecast

Advertisements
Track Severe Weather on mobile